Terminal Aerodrome Forecast
Issued by NWS

Home | Current Version | Previous Version | Text Only | Print | Product List | Glossary On
Versions: 1 2 3 4 5 6 7 8 9 10 11 12 13 14 15 16
000
FTUS46 KMTR 190500
TAFSTS
TAF
KSTS 190521Z 1906/2006 VRB03KT P6SM SKC
      TEMPO 1912/1916 1/2SM FG VV002
     FM192000 22005KT P6SM SKC
     FM192200 20008KT P6SM SKC
     FM200300 VRB03KT P6SM SKC=

USA.gov is the U.S. government's official web portal to all federal, state and local government web resources and services.